Mittie, Louisiana
Current Conditions -  °F | °C
As of 4:55 AM on Friday 24 Oct 2014 (Local Time) from KACP Reporting Station
NA  
Wind Chill: 46°   Ceiling: NA
Heat Index: 46°   Visibility: 7mi
Dew Point: 45°   Wind: 0mph
Humidity: 95%   Direction: NA
Pressure: 30.12"   Gusts: NA
Location:  30.71°N, 92.91°W
Report Text: KACP 240955Z AUTO 00000KT 7SM 08/07 A3012 RMK AO2 T00790072
Loading
Personal Weather Stations






























Interactive Weather Map
Tropical Storm Tracking
New forecast layout! Learn more

10-Day Weather Forecast

Advertisements
Track Severe Weather on mobile